Time;durP1;ratioP1;P1;durP2;ratioP2;P2;SDS_P1;SDS_P2;PMS_P1;PMS_P2;Temp;Humidity;BMP_temperature;BMP_pressure;BME280_temperature;BME280_humidity;BME280_pressure;Samples;Min_cycle;Max_cycle;Signal;HPM_P1;HPM_P2
2022/08/11 00:00:07;;;;;;;2.70;1.40;;;17.90;71.50;;;17.88;49.69;97665.31;4983069;28;20034;-49
2022/08/11 00:02:38;;;;;;;3.05;1.58;;;17.90;71.90;;;17.84;49.87;97661.94;4999134;28;20050;-47
2022/08/11 00:05:11;;;;;;;1.20;1.10;;;17.80;72.10;;;17.80;49.72;97665.75;4982055;28;20109;-52
2022/08/11 00:07:54;;;;;;;4.70;1.65;;;17.80;71.80;;;17.76;49.96;97661.53;4982924;28;20033;-48
2022/08/11 00:10:23;;;;;;;2.72;1.55;;;17.80;72.00;;;17.71;50.44;97653.84;4980212;28;20533;-48
2022/08/11 00:12:59;;;;;;;2.03;1.42;;;17.70;72.60;;;17.52;50.10;97632.78;4999552;28;20046;-49
2022/08/11 00:15:37;;;;;;;2.25;1.50;;;17.70;72.20;;;17.70;49.68;97661.94;4981324;28;20031;-47
2022/08/11 00:18:03;;;;;;;2.03;1.50;;;17.70;71.90;;;17.70;49.82;97657.47;4998888;28;20045;-49
2022/08/11 00:20:31;;;;;;;2.35;1.40;;;17.70;72.00;;;17.69;49.78;97654.88;4998488;28;20025;-49
2022/08/11 00:23:12;;;;;;;2.67;1.60;;;17.70;72.10;;;17.53;49.70;97629.16;4987235;28;20022;-49
2022/08/11 00:25:43;;;;;;;2.17;1.48;;;17.70;71.90;;;17.63;50.08;97652.59;5002586;28;20026;-49
2022/08/11 00:28:26;;;;;;;3.70;1.65;;;17.60;72.20;;;17.60;50.25;97652.78;4985241;28;20525;-44
2022/08/11 00:30:54;;;;;;;1.77;1.30;;;17.60;72.50;;;17.58;50.24;97658.22;4985312;28;20417;-47
2022/08/11 00:33:24;;;;;;;2.28;1.77;;;17.60;72.50;;;17.55;50.34;97653.94;5002204;28;20040;-48
2022/08/11 00:35:57;;;;;;;2.10;1.90;;;17.60;72.70;;;17.52;50.72;97655.94;4984603;28;20104;-50
2022/08/11 00:38:28;;;;;;;1.83;1.30;;;17.50;73.10;;;17.44;50.93;97653.69;4984923;28;20030;-47
2022/08/11 00:41:08;;;;;;;2.35;1.77;;;17.50;73.20;;;17.43;50.96;97661.81;4984466;28;20038;-46
2022/08/11 00:44:03;;;;;;;2.72;1.58;;;17.50;73.20;;;17.42;50.82;97660.94;4983161;28;20022;-49
2022/08/11 00:46:57;;;;;;;2.33;1.55;;;17.40;73.10;;;17.34;51.25;97656.09;4983701;28;20029;-47
2022/08/11 00:50:07;;;;;;;1.65;1.40;;;17.40;73.30;;;17.38;51.50;97658.56;4983861;28;20029;-46
2022/08/11 00:52:52;;;;;;;2.58;1.80;;;17.40;73.80;;;17.38;52.26;97658.56;5002609;28;20036;-46
2022/08/11 00:56:15;;;;;;;1.42;1.33;;;17.40;74.40;;;17.34;52.13;97645.41;4998578;28;20037;-47
2022/08/11 00:59:37;;;;;;;1.75;1.50;;;17.40;74.50;;;17.32;52.32;97650.00;4979660;28;20057;-50
2022/08/11 01:02:34;;;;;;;3.33;1.70;;;17.40;74.50;;;17.31;52.25;97652.75;5000435;28;20059;-49
2022/08/11 01:05:35;;;;;;;3.38;1.70;;;17.30;74.40;;;17.18;52.96;97636.63;4983645;28;20489;-47
2022/08/11 01:08:42;;;;;;;1.50;1.30;;;17.30;75.00;;;17.22;53.55;97645.31;4993519;28;20066;-47
2022/08/11 01:11:45;;;;;;;2.50;1.75;;;17.30;75.40;;;17.14;54.47;97648.44;4967688;28;20184;-48
2022/08/11 01:14:30;;;;;;;2.28;1.17;;;17.30;76.30;;;17.15;54.37;97652.81;4999820;28;20289;-46
2022/08/11 01:17:38;;;;;;;1.92;1.42;;;17.20;76.10;;;17.11;54.90;97648.63;5001838;28;20025;-46
2022/08/11 01:20:44;;;;;;;2.28;1.77;;;17.20;76.40;;;17.08;55.31;97652.31;4984737;28;20060;-47
2022/08/11 01:23:44;;;;;;;2.10;1.40;;;17.10;76.90;;;17.05;55.39;97654.28;5000192;28;20031;-48
2022/08/11 01:26:38;;;;;;;2.10;1.40;;;17.10;77.00;;;17.03;55.23;97654.41;4999413;28;20037;-49
2022/08/11 01:30:14;;;;;;;3.03;1.50;;;17.10;77.10;;;17.03;55.10;97650.84;4981240;28;20441;-45
2022/08/11 01:33:20;;;;;;;1.75;1.40;;;17.10;76.80;;;16.98;55.30;97649.34;5000386;28;20044;-47
2022/08/11 01:36:35;;;;;;;2.33;1.60;;;17.00;77.00;;;16.97;55.44;97647.59;5017229;22;20061;-49
2022/08/11 01:39:50;;;;;;;2.38;1.50;;;17.00;77.10;;;16.95;54.92;97648.66;5001594;28;20022;-48
2022/08/11 01:46:06;;;;;;;3.75;1.60;;;17.00;77.00;;;16.88;55.15;97639.31;4982220;28;20452;-48
2022/08/11 01:48:47;;;;;;;3.08;1.30;;;17.00;77.10;;;16.85;55.56;97642.16;4986900;28;20038;-47
2022/08/11 01:51:34;;;;;;;1.95;1.40;;;16.90;77.40;;;16.80;56.02;97637.91;5000183;28;20029;-46
2022/08/11 01:54:19;;;;;;;2.13;1.60;;;16.90;77.70;;;16.74;56.79;97634.75;5000016;28;20026;-49
2022/08/11 01:57:31;;;;;;;2.38;1.70;;;16.80;78.30;;;16.76;56.72;97635.50;4984437;28;20022;-46
2022/08/11 02:00:21;;;;;;;2.83;1.60;;;16.80;78.30;;;16.76;57.31;97638.19;4968171;28;20038;-48
2022/08/11 02:03:00;;;;;;;1.55;1.40;;;16.80;78.90;;;16.73;57.12;97633.91;4982460;28;20390;-46
2022/08/11 02:05:48;;;;;;;3.28;1.60;;;16.80;78.60;;;16.70;56.83;97630.56;4983991;28;20371;-48
2022/08/11 02:08:56;;;;;;;1.90;1.65;;;16.80;78.50;;;16.67;56.76;97634.25;5000765;28;20406;-47
2022/08/11 02:11:30;;;;;;;1.90;1.60;;;16.70;78.20;;;16.61;57.74;97622.13;4981396;28;20065;-46
2022/08/11 02:14:27;;;;;;;3.38;1.55;;;16.70;79.10;;;16.57;58.11;97625.09;5000416;28;20052;-50
2022/08/11 02:17:19;;;;;;;2.53;1.60;;;16.70;79.40;;;16.55;58.08;97634.97;4987139;28;20053;-50
2022/08/11 02:26:08;;;;;;;3.10;2.10;;;16.50;81.00;;;16.44;60.34;97622.28;5001851;28;20064;-46
2022/08/11 02:28:52;;;;;;;3.08;1.80;;;16.50;80.60;;;16.43;60.32;97623.22;4999427;28;20035;-49
2022/08/11 02:34:58;;;;;;;3.78;1.55;;;16.50;81.30;;;16.27;60.89;97625.88;4997750;28;20080;-48
2022/08/11 02:37:32;;;;;;;2.42;1.73;;;16.40;81.60;;;16.17;61.42;97630.88;4982193;28;20449;-46
2022/08/11 02:39:58;;;;;;;3.63;1.60;;;16.30;81.90;;;16.08;61.78;97618.09;5000179;28;20057;-46
2022/08/11 02:42:40;;;;;;;2.85;1.60;;;16.20;82.20;;;16.03;61.93;97622.78;4999743;28;20026;-48
2022/08/11 02:45:18;;;;;;;;;;;16.10;82.30;;;15.94;63.06;97620.66;4982671;28;20042;-47
2022/08/11 02:51:44;;;;;;;2.22;1.63;;;16.00;83.40;;;15.79;64.59;97623.22;4998959;28;20096;-51
2022/08/11 02:54:34;;;;;;;2.28;1.67;;;15.90;84.30;;;15.70;65.04;97615.66;4996168;28;20030;-47
2022/08/11 02:57:29;;;;;;;1.98;1.70;;;15.90;84.60;;;15.63;65.20;97624.91;5000356;28;20038;-48
2022/08/11 03:00:11;;;;;;;2.88;1.88;;;15.70;84.80;;;15.60;64.94;97622.44;4986128;28;20057;-47
2022/08/11 03:03:16;;;;;;;2.38;1.80;;;15.70;84.70;;;15.55;65.07;97624.50;4997835;28;20073;-47
2022/08/11 03:05:50;;;;;;;2.38;1.60;;;15.70;84.80;;;15.46;66.01;97618.72;4981569;28;20176;-45
2022/08/11 03:08:38;;;;;;;3.33;1.95;;;15.60;85.60;;;15.38;65.98;97617.41;4997692;28;20563;-48
2022/08/11 03:17:28;;;;;;;2.75;1.40;;;15.50;86.20;;;15.22;66.64;97620.03;4985480;28;20044;-47
2022/08/11 03:20:27;;;;;;;3.42;1.60;;;15.40;86.10;;;15.27;66.51;97621.50;4982917;28;20037;-48
2022/08/11 03:23:29;;;;;;;3.35;1.98;;;15.40;86.10;;;15.26;66.53;97624.22;4999579;28;20040;-46
2022/08/11 03:26:09;;;;;;;3.70;1.90;;;15.40;86.20;;;15.24;67.48;97621.66;5001388;28;20433;-46
2022/08/11 03:29:07;;;;;;;3.72;2.08;;;15.40;86.90;;;15.21;68.26;97631.59;4998810;28;20484;-46
2022/08/11 03:31:50;;;;;;;2.55;1.95;;;15.30;87.40;;;15.17;68.49;97633.53;4984045;28;20289;-47
2022/08/11 03:34:24;;;;;;;2.65;2.05;;;15.30;87.60;;;15.18;68.94;97634.38;4982182;28;20413;-48
2022/08/11 03:41:41;;;;;;;2.22;1.88;;;15.30;88.00;;;15.13;68.33;97650.59;4986076;28;20520;-49
2022/08/11 03:43:18;;;;;;;3.05;2.15;;;15.30;87.60;;;15.13;67.81;97641.72;4998224;28;20044;-46
2022/08/11 03:46:12;;;;;;;3.25;2.00;;;15.20;87.40;;;15.12;68.43;97643.53;4997623;28;20026;-47
2022/08/11 03:48:52;;;;;;;3.10;2.20;;;15.20;87.80;;;15.11;68.19;97648.91;4984968;28;20033;-46
2022/08/11 03:51:37;;;;;;;3.17;1.88;;;15.20;87.70;;;15.11;68.65;97638.28;4997248;28;20026;-47
2022/08/11 03:54:39;;;;;;;2.28;1.90;;;15.20;87.90;;;15.08;68.70;97642.84;4991229;28;20117;-46
2022/08/11 03:57:43;;;;;;;2.88;2.00;;;15.20;88.10;;;15.05;69.41;97650.94;5000680;28;20024;-46
2022/08/11 04:01:13;;;;;;;3.40;2.00;;;15.20;88.60;;;15.02;69.37;97651.13;4983924;28;20136;-45
2022/08/11 04:04:03;;;;;;;3.13;2.10;;;15.20;88.70;;;15.03;68.43;97639.56;4962731;28;20065;-45
2022/08/11 04:06:55;;;;;;;3.55;2.08;;;15.20;88.30;;;15.01;69.22;97638.78;5004534;28;20045;-46
2022/08/11 04:09:51;;;;;;;;;;;15.10;88.70;;;14.98;69.67;97632.75;4987075;28;20050;-45
2022/08/11 04:12:58;;;;;;;3.10;1.90;;;15.10;89.00;;;14.98;69.67;97644.22;4984776;28;19914;-48
2022/08/11 04:16:07;;;;;;;2.25;1.90;;;15.10;89.00;;;14.98;70.18;97641.56;5001192;28;20191;-48
2022/08/11 04:19:17;;;;;;;2.97;1.80;;;15.10;89.50;;;14.98;69.83;97644.22;4986108;28;20021;-47
2022/08/11 04:22:07;;;;;;;2.67;1.70;;;15.10;89.30;;;15.00;69.31;97649.47;5001602;28;20029;-47
2022/08/11 04:25:06;;;;;;;2.85;1.75;;;15.10;88.90;;;15.07;68.48;97649.09;4985029;28;20460;-46
2022/08/11 04:27:58;;;;;;;2.92;1.65;;;15.20;88.60;;;15.10;68.17;97641.91;4985227;28;20026;-47
2022/08/11 04:30:43;;;;;;;3.72;1.90;;;15.20;88.20;;;15.14;68.24;97635.50;4999761;28;20026;-45
2022/08/11 04:34:07;;;;;;;2.55;1.90;;;15.20;88.40;;;15.14;68.78;97641.66;4982934;28;20159;-47
2022/08/11 04:39:56;;;;;;;2.45;2.00;;;15.30;88.70;;;15.21;68.11;97640.41;5001157;28;19936;-47
2022/08/11 04:43:20;;;;;;;3.17;1.70;;;15.30;88.30;;;15.22;68.60;97638.63;5001150;28;20489;-46
2022/08/11 04:46:29;;;;;;;2.92;2.10;;;15.40;88.80;;;15.24;68.69;97640.25;5001257;28;20038;-48
2022/08/11 05:03:08;;;;;;;2.90;1.95;;;15.50;90.30;;;15.40;71.35;97648.28;5000535;28;20116;-47
2022/08/11 05:06:34;;;;;;;3.47;2.20;;;15.50;90.30;;;15.46;70.74;97649.75;5002121;28;20045;-46
2022/08/11 05:09:36;;;;;;;2.42;1.88;;;15.60;90.10;;;15.52;71.00;97659.19;5003345;28;20084;-45
2022/08/11 05:12:24;;;;;;;2.90;2.03;;;15.60;90.20;;;15.53;71.15;97652.97;5001430;28;20026;-46
2022/08/11 05:27:09;;;;;;;2.45;1.90;;;15.80;90.40;;;15.69;71.24;97647.69;4988646;28;20096;-49
2022/08/11 05:35:30;;;;;;;3.63;2.13;;;16.40;89.90;;;16.36;69.29;97656.44;4986973;28;20180;-49
2022/08/11 05:57:30;;;;;;;3.70;2.13;;;17.30;86.80;;;17.25;64.27;97664.63;5000706;28;20497;-46
2022/08/11 06:00:09;;;;;;;3.00;1.98;;;17.40;86.40;;;17.33;62.93;97670.34;4984832;28;20434;-49
2022/08/11 06:02:49;;;;;;;3.25;2.25;;;17.50;85.80;;;17.46;62.14;97672.28;5000107;28;20394;-47
2022/08/11 06:05:16;;;;;;;2.55;1.90;;;17.60;84.70;;;17.55;61.69;97661.09;4998884;28;20380;-47
2022/08/11 06:07:43;;;;;;;4.80;2.70;;;17.70;84.40;;;17.64;60.85;97663.19;4984508;28;20053;-47
2022/08/11 06:10:09;;;;;;;3.45;2.08;;;17.80;84.00;;;17.69;60.37;97658.44;4998226;28;20034;-50
2022/08/11 06:12:36;;;;;;;2.83;1.88;;;17.90;83.30;;;17.84;60.08;97669.09;4982540;28;20025;-49
2022/08/11 06:15:11;;;;;;;2.97;1.88;;;18.00;83.20;;;17.92;59.52;97662.34;4983173;28;20030;-49
2022/08/11 06:17:45;;;;;;;2.78;2.20;;;18.10;82.80;;;18.03;57.99;97667.00;4985473;28;20037;-49
2022/08/11 06:20:14;;;;;;;3.00;2.05;;;18.20;82.00;;;18.15;57.84;97667.19;4979483;28;20179;-45
2022/08/11 06:22:44;;;;;;;4.40;2.47;;;18.30;81.60;;;18.21;58.03;97659.63;4985288;28;20029;-49
2022/08/11 06:25:11;;;;;;;4.35;2.33;;;18.40;81.60;;;18.35;57.09;97665.91;4999951;28;20026;-49
2022/08/11 06:27:40;;;;;;;3.33;2.00;;;18.50;81.00;;;18.50;57.02;97672.94;4999416;28;20103;-49
2022/08/11 06:30:12;;;;;;;3.55;2.20;;;18.60;81.70;;;18.67;55.92;97675.38;5000858;28;20030;-49
2022/08/11 06:32:41;;;;;;;3.55;1.95;;;18.80;80.20;;;18.85;55.21;97673.31;4998893;28;20120;-48
2022/08/11 06:35:44;;;;;;;2.30;1.88;;;18.90;79.60;;;19.03;54.79;97668.56;4984979;28;20053;-49
2022/08/11 06:38:27;;;;;;;5.25;2.80;;;19.10;79.20;;;19.21;54.21;97676.31;4997584;28;20080;-48
2022/08/11 06:44:04;;;;;;;6.38;2.05;;;19.40;77.20;;;19.46;52.66;97671.00;4999604;28;20076;-47
2022/08/11 06:46:37;;;;;;;7.00;2.40;;;19.60;77.40;;;19.50;50.90;97668.97;4982330;28;20060;-50
2022/08/11 06:51:10;;;;;;;4.30;2.40;;;19.60;75.60;;;19.59;50.98;97671.00;4983847;28;20030;-48
2022/08/11 06:51:53;;;;;;;4.22;2.38;;;19.70;75.40;;;19.72;50.40;97662.13;4998857;28;20048;-48
2022/08/11 06:54:20;;;;;;;3.53;2.38;;;19.90;75.10;;;19.88;49.95;97669.97;4998113;28;20053;-50
2022/08/11 07:02:34;;;;;;;3.33;2.22;;;20.30;74.70;;;20.43;49.11;97671.38;4996322;28;20181;-47
2022/08/11 07:05:16;;;;;;;3.38;2.17;;;20.50;74.10;;;20.62;48.70;97670.94;4983922;28;20038;-48
2022/08/11 07:17:41;;;;;;;3.17;2.30;;;21.10;71.00;;;21.28;46.38;97675.84;4985063;28;20092;-47
2022/08/11 07:31:45;;;;;;;3.40;2.45;;;21.70;69.60;;;21.83;44.80;97666.25;4988443;28;20113;-47
2022/08/11 07:34:20;;;;;;;5.18;2.50;;;21.80;68.60;;;21.92;45.38;97661.97;5005474;28;20027;-45
2022/08/11 07:36:54;;;;;;;3.35;2.30;;;21.90;68.90;;;22.01;45.06;97655.03;5009068;22;20076;-44
2022/08/11 07:39:48;;;;;;;4.28;2.20;;;22.00;69.00;;;22.21;44.43;97661.50;5006717;28;20042;-44
2022/08/11 07:42:20;;;;;;;4.90;2.30;;;22.10;68.40;;;22.34;44.46;97658.69;5002924;28;20125;-44
2022/08/11 07:53:02;;;;;;;3.80;2.60;;;22.70;66.20;;;22.84;43.01;97667.13;5007949;28;20084;-44
2022/08/11 07:55:30;;;;;;;3.75;2.38;;;22.80;66.80;;;22.96;42.77;97657.22;5006167;28;20040;-43
2022/08/11 08:20:11;;;;;;;4.68;2.65;;;23.50;63.20;;;23.72;40.46;97651.69;5006071;28;20036;-44
2022/08/11 08:22:37;;;;;;;5.05;2.85;;;23.60;63.00;;;23.79;39.48;97659.09;5006348;28;20064;-44
2022/08/11 08:25:06;;;;;;;2.67;2.22;;;23.70;61.90;;;23.80;38.59;97652.75;5004676;28;20570;-46
2022/08/11 08:27:34;;;;;;;3.08;2.17;;;23.80;60.20;;;23.93;39.39;97646.31;5008745;28;20026;-45
2022/08/11 08:32:50;;;;;;;2.75;2.25;;;23.90;60.80;;;24.17;38.31;97657.63;5007408;28;20060;-44
2022/08/11 08:35:16;;;;;;;3.22;2.25;;;24.10;59.70;;;24.26;38.28;97663.16;5004654;28;20312;-46
2022/08/11 08:37:42;;;;;;;3.38;2.65;;;24.10;59.90;;;24.29;38.62;97654.81;5003490;28;20257;-43
2022/08/11 08:40:09;;;;;;;6.57;2.92;;;24.20;59.70;;;24.32;37.84;97662.63;5004898;28;20034;-45
2022/08/11 08:42:41;;;;;;;2.53;2.33;;;24.20;59.00;;;24.37;38.18;97663.94;5002928;28;20481;-45
2022/08/11 08:45:12;;;;;;;2.47;2.08;;;24.30;59.40;;;24.46;38.49;97662.25;5002385;28;20282;-46
2022/08/11 08:47:43;;;;;;;2.83;2.28;;;24.30;60.20;;;24.53;38.13;97660.75;5003255;28;20037;-45
2022/08/11 08:50:14;;;;;;;5.18;2.47;;;24.40;59.40;;;24.65;37.94;97668.72;5003300;28;20533;-46
2022/08/11 08:52:57;;;;;;;6.22;2.13;;;24.50;59.30;;;24.71;36.12;97655.53;5003788;28;20136;-47
2022/08/11 08:55:26;;;;;;;4.47;2.75;;;24.60;57.60;;;24.72;37.54;97654.53;5000417;28;20121;-45
2022/08/11 08:57:54;;;;;;;6.07;2.55;;;24.60;58.10;;;24.75;37.32;97658.81;5002281;28;20029;-43
2022/08/11 09:00:21;;;;;;;4.80;2.53;;;24.70;58.10;;;24.87;36.34;97660.38;5001237;28;20434;-44
2022/08/11 09:02:47;;;;;;;3.60;2.20;;;24.80;57.80;;;24.92;36.75;97647.31;5004786;28;20128;-44
2022/08/11 09:05:17;;;;;;;5.05;1.90;;;24.80;57.50;;;25.02;36.55;97651.88;5004269;28;20119;-47
2022/08/11 09:07:46;;;;;;;2.95;2.30;;;24.90;57.60;;;25.08;35.24;97657.53;5003693;28;20041;-46
2022/08/11 09:10:16;;;;;;;3.42;2.05;;;25.00;56.20;;;25.01;35.45;97642.91;5001814;28;20060;-46
2022/08/11 09:12:42;;;;;;;5.93;2.00;;;25.00;56.10;;;25.06;35.45;97642.50;5003150;28;20025;-48
2022/08/11 09:15:10;;;;;;;4.07;2.03;;;24.90;55.80;;;25.07;35.37;97649.59;5000901;28;20033;-47
2022/08/11 09:17:40;;;;;;;4.40;2.22;;;24.90;55.70;;;25.12;34.92;97656.28;4999757;28;20091;-45
2022/08/11 09:20:11;;;;;;;3.60;2.40;;;25.00;55.40;;;25.12;34.18;97661.69;5001969;28;20121;-44
2022/08/11 09:28:15;;;;;;;4.20;2.20;;;25.00;54.90;;;25.29;33.68;97659.28;4997201;28;20164;-46
2022/08/11 09:30:52;;;;;;;2.60;1.83;;;25.20;53.80;;;25.41;33.65;97654.56;5002680;28;20025;-45
2022/08/11 09:33:19;;;;;;;5.00;2.20;;;25.20;53.80;;;25.59;33.46;97660.09;5019595;28;20414;-45
2022/08/11 09:35:48;;;;;;;2.80;1.90;;;25.40;53.40;;;25.61;33.22;97653.56;5001939;28;20030;-47
2022/08/11 09:41:04;;;;;;;5.88;2.42;;;25.50;53.30;;;25.74;32.91;97658.66;5003630;28;20037;-44
2022/08/11 09:46:16;;;;;;;2.78;2.10;;;25.60;53.10;;;25.88;33.21;97660.03;5001474;28;20044;-46
2022/08/11 09:48:44;;;;;;;3.72;2.00;;;25.70;53.40;;;25.93;32.54;97663.16;5001840;28;20083;-44
2022/08/11 09:51:12;;;;;;;3.38;2.20;;;25.80;52.60;;;26.00;32.80;97642.66;4999749;28;20080;-43
2022/08/11 09:53:43;;;;;;;4.43;2.20;;;25.90;52.60;;;26.05;32.87;97645.78;5003053;28;20026;-46
2022/08/11 09:59:05;;;;;;;3.28;2.30;;;25.90;51.70;;;25.99;32.36;97642.84;5002283;28;20060;-46
2022/08/11 10:01:41;;;;;;;7.40;2.20;;;25.90;52.20;;;25.99;32.40;97640.13;5001963;28;20030;-44
2022/08/11 10:04:09;;;;;;;2.88;2.35;;;25.90;51.80;;;26.03;32.20;97645.06;5010491;28;20041;-45
2022/08/11 10:09:24;;;;;;;2.70;1.90;;;25.90;51.50;;;25.97;31.38;97640.28;5001329;28;20076;-47
2022/08/11 10:11:55;;;;;;;5.97;2.20;;;25.90;50.60;;;26.08;31.65;97648.19;5005128;28;20057;-46
2022/08/11 10:17:08;;;;;;;2.75;1.85;;;26.00;50.90;;;26.10;31.42;97640.78;4999110;28;20048;-48
2022/08/11 10:19:39;;;;;;;2.15;1.88;;;26.00;50.50;;;25.97;29.93;97640.28;5001765;28;20517;-47
2022/08/11 10:27:43;;;;;;;3.67;1.80;;;25.90;50.10;;;26.10;30.47;97629.97;5002179;28;20056;-45
2022/08/11 10:35:43;;;;;;;2.45;1.73;;;26.00;50.30;;;26.17;30.59;97637.50;5000701;28;20040;-44
2022/08/11 10:38:12;;;;;;;3.40;2.03;;;26.10;49.60;;;26.24;30.19;97625.94;4999436;28;20038;-44
2022/08/11 10:40:40;;;;;;;3.22;1.90;;;26.10;49.10;;;26.27;30.36;97622.06;5000316;28;20070;-45
2022/08/11 10:43:12;;;;;;;2.45;1.85;;;26.20;49.10;;;26.33;30.19;97621.47;5002754;28;20038;-44
2022/08/11 10:48:29;;;;;;;2.60;1.90;;;26.20;48.90;;;26.26;30.43;97614.97;5008057;28;19920;-46
2022/08/11 10:51:13;;;;;;;3.67;1.85;;;26.20;49.40;;;26.28;30.52;97616.50;5001810;28;20545;-48
2022/08/11 10:59:16;;;;;;;3.45;1.80;;;26.20;49.80;;;26.27;30.90;97605.84;5002582;28;20787;-46
2022/08/11 11:01:44;;;;;;;2.78;1.75;;;26.20;50.00;;;26.35;30.12;97602.41;4999143;28;20112;-45
2022/08/11 11:04:17;;;;;;;2.67;2.05;;;26.20;49.00;;;26.45;30.26;97600.47;5002259;28;20358;-46
2022/08/11 11:07:02;;;;;;;3.30;1.90;;;26.30;49.00;;;26.46;30.03;97602.19;5000421;28;20408;-45
2022/08/11 11:09:43;;;;;;;2.90;1.92;;;26.40;49.60;;;26.42;30.12;97604.34;5002601;28;20226;-48
2022/08/11 11:18:08;;;;;;;6.00;2.33;;;26.30;48.20;;;26.33;29.75;97585.50;5002101;28;20117;-47
2022/08/11 11:21:14;;;;;;;2.83;2.00;;;26.30;48.40;;;26.40;29.75;97587.44;5000562;28;20029;-44
2022/08/11 11:24:15;;;;;;;2.83;1.77;;;26.30;48.40;;;26.45;29.66;97600.47;4977486;28;20571;-44
2022/08/11 11:27:11;;;;;;;3.65;1.70;;;26.30;47.80;;;26.52;28.95;97576.38;4999140;28;20064;-44
2022/08/11 11:30:05;;;;;;;2.35;1.98;;;26.40;47.50;;;26.50;29.10;97581.94;4999433;28;20678;-47
2022/08/11 11:33:15;;;;;;;3.65;2.03;;;26.40;47.30;;;26.59;29.05;97580.19;5000021;28;20402;-48
2022/08/11 11:35:53;;;;;;;2.30;1.83;;;26.50;47.30;;;26.68;28.80;97565.75;5000874;28;20053;-48
2022/08/11 11:38:19;;;;;;;2.25;1.80;;;26.50;47.10;;;26.65;28.61;97563.38;4999155;28;20050;-48
2022/08/11 11:41:23;;;;;;;2.75;1.70;;;26.60;47.20;;;26.71;28.78;97575.44;4999840;28;20485;-46
2022/08/11 11:43:32;;;;;;;2.35;1.98;;;26.60;46.70;;;26.65;29.04;97577.75;4999640;28;20042;-47
2022/08/11 11:45:59;;;;;;;3.67;2.10;;;26.60;46.80;;;26.67;28.37;97566.78;5000335;28;20029;-48
2022/08/11 11:48:27;;;;;;;3.40;1.70;;;26.60;46.60;;;26.71;28.57;97570.03;4999437;28;20065;-46
2022/08/11 11:50:54;;;;;;;4.97;1.77;;;26.60;46.60;;;26.66;28.09;97565.06;4999701;28;20026;-45
2022/08/11 11:53:21;;;;;;;5.05;2.00;;;26.60;45.80;;;26.69;28.35;97564.75;5000174;28;20030;-47
2022/08/11 11:55:47;;;;;;;1.88;1.70;;;26.60;46.40;;;26.75;28.19;97564.13;4999454;28;20034;-45
2022/08/11 12:01:19;;;;;;;4.80;2.30;;;26.70;45.90;;;26.78;27.57;97553.00;5000856;28;20157;-46
2022/08/11 12:03:49;;;;;;;3.72;1.90;;;26.70;45.40;;;26.84;27.99;97559.66;5002394;28;20057;-48
2022/08/11 12:06:17;;;;;;;5.63;1.85;;;26.70;45.90;;;26.71;27.74;97548.38;4999758;28;20875;-45
2022/08/11 12:08:47;;;;;;;3.63;1.90;;;26.70;45.50;;;26.78;28.21;97538.66;4998759;28;20041;-49
2022/08/11 12:14:05;;;;;;;3.35;1.60;;;26.80;46.50;;;26.91;27.65;97551.78;5000479;28;20037;-46
2022/08/11 12:16:33;;;;;;;3.80;2.00;;;26.90;45.90;;;26.95;27.40;97545.03;5018373;28;20405;-49
2022/08/11 12:19:00;;;;;;;2.17;1.75;;;26.90;44.90;;;27.00;26.90;97553.53;5003274;28;20065;-45
2022/08/11 12:21:28;;;;;;;3.00;1.60;;;26.90;44.80;;;26.96;27.15;97538.63;5004678;28;20083;-47
2022/08/11 12:29:18;;;;;;;2.17;1.80;;;26.90;45.20;;;27.13;27.46;97520.63;5001375;28;20034;-47
2022/08/11 12:31:45;;;;;;;4.28;1.67;;;27.00;45.00;;;27.28;27.39;97532.63;5005504;28;20034;-45
2022/08/11 12:34:14;;;;;;;2.20;1.70;;;27.10;45.10;;;27.30;26.60;97533.31;5001615;28;20026;-46
2022/08/11 12:36:52;;;;;;;4.22;1.60;;;27.20;43.70;;;27.36;26.61;97529.97;5003153;28;20025;-44
2022/08/11 12:45:26;;;;;;;5.85;1.80;;;27.30;44.10;;;27.42;26.28;97514.94;5001368;28;20764;-45
2022/08/11 12:53:27;;;;;;;5.93;2.15;;;27.60;44.30;;;27.74;26.07;97510.72;5000837;28;20555;-44
2022/08/11 12:58:50;;;;;;;6.18;1.98;;;27.60;43.60;;;27.70;26.34;97496.63;5002712;28;20033;-45
2022/08/11 13:06:46;;;;;;;5.28;1.83;;;27.70;42.60;;;27.71;25.97;97502.91;5000798;28;20109;-43
2022/08/11 13:09:13;;;;;;;2.38;1.70;;;27.60;42.70;;;27.70;25.42;97488.50;5003741;28;20034;-45
2022/08/11 13:14:28;;;;;;;2.67;1.50;;;27.60;43.00;;;27.74;25.65;97495.28;5004504;28;20556;-45
2022/08/11 13:19:41;;;;;;;2.72;1.80;;;27.60;42.60;;;27.71;26.78;97484.81;5002646;28;20041;-45
2022/08/11 13:22:07;;;;;;;1.92;1.50;;;27.60;43.50;;;27.69;26.68;97472.41;5002433;28;20026;-46
2022/08/11 13:24:34;;;;;;;2.58;1.92;;;27.60;44.20;;;27.74;26.58;97478.19;5000381;28;20083;-43
2022/08/11 13:27:01;;;;;;;3.58;2.05;;;27.60;44.00;;;27.71;26.40;97486.63;5000965;28;20278;-47
2022/08/11 13:29:28;;;;;;;5.45;1.80;;;27.60;43.30;;;27.72;26.28;97474.81;4999895;28;20033;-44
2022/08/11 13:31:59;;;;;;;3.03;1.88;;;27.60;43.30;;;27.76;25.77;97473.47;5002439;28;20029;-47
2022/08/11 13:34:27;;;;;;;3.33;1.90;;;27.60;42.50;;;27.63;25.08;97473.06;5003528;28;20023;-46
2022/08/11 13:36:58;;;;;;;2.10;1.70;;;27.60;41.90;;;27.65;25.39;97473.75;5008334;22;20054;-49
2022/08/11 13:39:27;;;;;;;3.33;1.80;;;27.60;42.00;;;27.65;25.63;97473.75;4964571;28;20034;-47
2022/08/11 13:41:59;;;;;;;4.60;1.70;;;27.60;42.10;;;27.69;26.47;97465.16;4961125;28;20166;-49
2022/08/11 13:44:28;;;;;;;2.40;1.83;;;27.60;43.30;;;27.77;25.33;97464.31;4973368;28;20053;-47
2022/08/11 13:47:02;;;;;;;2.35;1.80;;;27.70;42.40;;;27.90;25.84;97472.00;4967403;28;20026;-47
2022/08/11 13:49:30;;;;;;;3.88;1.92;;;27.80;42.90;;;27.97;26.24;97464.94;4939812;28;20073;-48
2022/08/11 13:51:57;;;;;;;1.88;1.55;;;27.80;43.10;;;28.11;26.16;97463.44;4959083;28;20109;-46
2022/08/11 13:54:27;;;;;;;2.25;1.90;;;28.00;43.10;;;28.29;24.45;97460.59;4961461;28;20042;-49
2022/08/11 13:57:02;;;;;;;6.47;1.80;;;28.10;41.50;;;28.30;25.35;97460.44;4953738;28;20028;-47
2022/08/11 13:59:28;;;;;;;3.15;1.70;;;28.20;41.90;;;28.37;24.90;97463.31;4961235;28;20026;-51
2022/08/11 14:02:02;;;;;;;5.20;1.35;;;28.20;41.30;;;28.40;24.75;97448.59;4956556;28;20038;-47
2022/08/11 14:04:35;;;;;;;2.30;1.50;;;28.30;41.30;;;28.54;23.95;97453.38;4955750;28;20038;-47
2022/08/11 14:07:07;;;;;;;1.88;1.60;;;28.40;40.90;;;28.67;24.52;97452.84;4956813;28;20550;-48
2022/08/11 14:09:43;;;;;;;5.15;1.65;;;28.50;41.30;;;28.51;23.63;97440.94;4941060;28;20130;-48
2022/08/11 14:15:18;;;;;;;2.53;1.77;;;28.50;40.10;;;28.36;24.26;97437.22;4942349;28;20046;-49
2022/08/11 14:18:00;;;;;;;2.13;1.70;;;28.40;40.20;;;28.34;23.98;97436.53;4944212;28;20050;-48
2022/08/11 14:22:05;;;;;;;4.22;1.80;;;28.30;40.50;;;28.36;24.64;97439.94;4961204;28;20170;-48
2022/08/11 14:23:15;;;;;;;1.92;1.70;;;28.30;40.80;;;28.35;24.41;97425.53;4945252;28;20415;-46
2022/08/11 14:26:22;;;;;;;2.90;1.90;;;28.30;40.40;;;28.43;24.43;97429.28;4954460;28;20125;-48
2022/08/11 14:28:32;;;;;;;2.55;1.80;;;28.40;41.00;;;28.46;24.20;97427.06;4955709;28;20042;-47
2022/08/11 14:30:59;;;;;;;1.98;1.77;;;28.40;40.90;;;28.51;24.15;97418.41;4937361;28;20031;-46
2022/08/11 14:33:25;;;;;;;2.90;1.90;;;28.40;40.80;;;28.66;24.96;97429.44;4957200;28;20054;-47
2022/08/11 14:35:51;;;;;;;2.85;2.03;;;28.50;40.90;;;28.63;23.40;97421.66;4954290;28;20487;-50
2022/08/11 14:38:18;;;;;;;2.45;1.70;;;28.60;39.80;;;28.70;24.06;97418.09;4959177;28;20045;-47
2022/08/11 14:49:01;;;;;;;2.03;1.60;;;28.70;39.90;;;28.66;23.30;97418.59;4941489;28;20054;-47
2022/08/11 14:51:27;;;;;;;5.68;1.70;;;28.70;39.40;;;28.67;23.92;97414.88;4955128;28;20341;-49
2022/08/11 14:56:34;;;;;;;2.95;1.83;;;28.70;39.30;;;28.81;22.91;97414.19;4957354;28;20027;-48
2022/08/11 14:56:39;;;;;;;3.78;1.60;;;28.70;38.90;;;28.91;23.68;97422.13;4956002;28;20487;-45
2022/08/11 14:59:06;;;;;;;2.75;1.70;;;28.90;39.60;;;28.88;22.96;97408.91;4936912;28;20804;-46
2022/08/11 15:04:19;;;;;;;3.13;1.60;;;29.00;38.90;;;29.28;22.50;97404.44;4955116;28;20092;-47
2022/08/11 15:06:45;;;;;;;2.75;1.55;;;29.20;38.60;;;29.38;22.60;97399.66;4940086;28;20030;-47
2022/08/11 15:09:10;;;;;;;1.65;1.55;;;29.30;38.60;;;29.54;22.90;97401.44;4954457;28;20102;-49